sensor_id;sensor_type;location;lat;lon;timestamp;P1;durP1;ratioP1;P2;durP2;ratioP2
40176;SDS011;31511;46.176;9.874;2023-08-20T00:01:48;10.57;;;7.60;;
40176;SDS011;31511;46.176;9.874;2023-08-20T00:04:36;13.18;;;8.50;;
40176;SDS011;31511;46.176;9.874;2023-08-20T00:07:22;11.20;;;7.70;;
40176;SDS011;31511;46.176;9.874;2023-08-20T00:10:08;11.77;;;8.15;;
40176;SDS011;31511;46.176;9.874;2023-08-20T00:12:53;10.18;;;8.30;;
40176;SDS011;31511;46.176;9.874;2023-08-20T00:15:38;10.82;;;7.75;;
40176;SDS011;31511;46.176;9.874;2023-08-20T00:18:24;15.15;;;7.90;;
40176;SDS011;31511;46.176;9.874;2023-08-20T00:21:13;14.98;;;8.10;;
40176;SDS011;31511;46.176;9.874;2023-08-20T00:23:59;11.82;;;7.65;;
40176;SDS011;31511;46.176;9.874;2023-08-20T00:26:43;13.23;;;8.68;;
40176;SDS011;31511;46.176;9.874;2023-08-20T00:29:29;10.40;;;7.65;;
40176;SDS011;31511;46.176;9.874;2023-08-20T00:32:15;9.88;;;7.40;;
40176;SDS011;31511;46.176;9.874;2023-08-20T00:35:00;12.23;;;7.22;;
40176;SDS011;31511;46.176;9.874;2023-08-20T00:37:48;10.43;;;7.28;;
40176;SDS011;31511;46.176;9.874;2023-08-20T00:40:33;12.82;;;7.78;;
40176;SDS011;31511;46.176;9.874;2023-08-20T00:43:18;12.05;;;7.60;;
40176;SDS011;31511;46.176;9.874;2023-08-20T00:46:02;13.50;;;6.88;;
40176;SDS011;31511;46.176;9.874;2023-08-20T00:48:47;13.10;;;7.55;;
40176;SDS011;31511;46.176;9.874;2023-08-20T00:51:32;11.85;;;6.97;;
40176;SDS011;31511;46.176;9.874;2023-08-20T00:54:17;12.70;;;6.97;;
40176;SDS011;31511;46.176;9.874;2023-08-20T00:57:06;13.90;;;9.48;;
40176;SDS011;31511;46.176;9.874;2023-08-20T00:59:51;12.95;;;7.82;;
40176;SDS011;31511;46.176;9.874;2023-08-20T01:02:36;13.82;;;7.25;;
40176;SDS011;31511;46.176;9.874;2023-08-20T01:05:20;11.93;;;7.00;;
40176;SDS011;31511;46.176;9.874;2023-08-20T01:08:16;9.68;;;7.90;;
40176;SDS011;31511;46.176;9.874;2023-08-20T01:11:16;10.95;;;7.53;;
40176;SDS011;31511;46.176;9.874;2023-08-20T01:14:02;11.15;;;7.57;;
40176;SDS011;31511;46.176;9.874;2023-08-20T01:16:47;12.50;;;7.88;;
40176;SDS011;31511;46.176;9.874;2023-08-20T01:19:32;13.10;;;7.13;;
40176;SDS011;31511;46.176;9.874;2023-08-20T01:31:00;8.70;;;7.18;;
40176;SDS011;31511;46.176;9.874;2023-08-20T01:33:46;8.57;;;7.43;;
40176;SDS011;31511;46.176;9.874;2023-08-20T01:36:31;12.63;;;7.97;;
40176;SDS011;31511;46.176;9.874;2023-08-20T01:39:16;11.48;;;7.45;;
40176;SDS011;31511;46.176;9.874;2023-08-20T01:42:02;10.68;;;6.80;;
40176;SDS011;31511;46.176;9.874;2023-08-20T01:44:47;7.60;;;6.85;;
40176;SDS011;31511;46.176;9.874;2023-08-20T01:47:31;10.02;;;7.10;;
40176;SDS011;31511;46.176;9.874;2023-08-20T01:50:16;13.30;;;7.50;;
40176;SDS011;31511;46.176;9.874;2023-08-20T01:53:02;10.35;;;8.23;;
40176;SDS011;31511;46.176;9.874;2023-08-20T01:55:46;13.48;;;8.23;;
40176;SDS011;31511;46.176;9.874;2023-08-20T01:58:31;9.45;;;7.50;;
40176;SDS011;31511;46.176;9.874;2023-08-20T02:01:16;7.68;;;6.90;;
40176;SDS011;31511;46.176;9.874;2023-08-20T02:04:01;11.70;;;7.45;;
40176;SDS011;31511;46.176;9.874;2023-08-20T02:06:45;9.55;;;7.88;;
40176;SDS011;31511;46.176;9.874;2023-08-20T02:09:30;10.98;;;7.13;;
40176;SDS011;31511;46.176;9.874;2023-08-20T02:12:15;13.18;;;8.13;;
40176;SDS011;31511;46.176;9.874;2023-08-20T02:15:00;11.73;;;8.35;;
40176;SDS011;31511;46.176;9.874;2023-08-20T02:17:46;10.68;;;7.72;;
40176;SDS011;31511;46.176;9.874;2023-08-20T02:20:31;10.10;;;7.50;;
40176;SDS011;31511;46.176;9.874;2023-08-20T02:23:17;11.68;;;8.05;;
40176;SDS011;31511;46.176;9.874;2023-08-20T02:26:03;10.02;;;7.90;;
40176;SDS011;31511;46.176;9.874;2023-08-20T02:28:47;11.15;;;7.82;;
40176;SDS011;31511;46.176;9.874;2023-08-20T02:31:32;12.63;;;8.32;;
40176;SDS011;31511;46.176;9.874;2023-08-20T02:34:16;12.88;;;7.72;;
40176;SDS011;31511;46.176;9.874;2023-08-20T02:37:01;12.60;;;7.95;;
40176;SDS011;31511;46.176;9.874;2023-08-20T02:39:45;13.63;;;8.00;;
40176;SDS011;31511;46.176;9.874;2023-08-20T02:42:30;14.18;;;7.05;;
40176;SDS011;31511;46.176;9.874;2023-08-20T02:45:15;11.35;;;7.45;;
40176;SDS011;31511;46.176;9.874;2023-08-20T02:48:00;9.52;;;7.43;;
40176;SDS011;31511;46.176;9.874;2023-08-20T02:50:45;14.20;;;7.85;;
40176;SDS011;31511;46.176;9.874;2023-08-20T02:53:29;10.85;;;7.75;;
40176;SDS011;31511;46.176;9.874;2023-08-20T02:56:14;10.80;;;8.00;;
40176;SDS011;31511;46.176;9.874;2023-08-20T02:58:59;10.77;;;7.25;;
40176;SDS011;31511;46.176;9.874;2023-08-20T03:01:44;8.52;;;6.85;;
40176;SDS011;31511;46.176;9.874;2023-08-20T03:04:28;16.58;;;10.23;;
40176;SDS011;31511;46.176;9.874;2023-08-20T03:07:13;19.58;;;10.48;;
40176;SDS011;31511;46.176;9.874;2023-08-20T03:09:58;25.13;;;11.07;;
40176;SDS011;31511;46.176;9.874;2023-08-20T03:12:43;13.75;;;8.02;;
40176;SDS011;31511;46.176;9.874;2023-08-20T03:15:29;13.70;;;8.70;;
40176;SDS011;31511;46.176;9.874;2023-08-20T03:18:14;14.05;;;8.07;;
40176;SDS011;31511;46.176;9.874;2023-08-20T03:20:59;10.27;;;7.28;;
40176;SDS011;31511;46.176;9.874;2023-08-20T03:23:43;9.18;;;8.10;;
40176;SDS011;31511;46.176;9.874;2023-08-20T03:26:29;11.13;;;8.05;;
40176;SDS011;31511;46.176;9.874;2023-08-20T03:29:16;11.75;;;8.90;;
40176;SDS011;31511;46.176;9.874;2023-08-20T03:32:00;11.48;;;7.68;;
40176;SDS011;31511;46.176;9.874;2023-08-20T03:34:45;10.70;;;7.78;;
40176;SDS011;31511;46.176;9.874;2023-08-20T03:37:30;10.43;;;7.03;;
40176;SDS011;31511;46.176;9.874;2023-08-20T03:40:15;11.15;;;7.70;;
40176;SDS011;31511;46.176;9.874;2023-08-20T03:43:02;8.52;;;7.25;;
40176;SDS011;31511;46.176;9.874;2023-08-20T03:45:49;17.75;;;7.32;;
40176;SDS011;31511;46.176;9.874;2023-08-20T03:48:35;9.85;;;8.15;;
40176;SDS011;31511;46.176;9.874;2023-08-20T03:51:20;10.85;;;8.25;;
40176;SDS011;31511;46.176;9.874;2023-08-20T03:54:06;9.10;;;7.63;;
40176;SDS011;31511;46.176;9.874;2023-08-20T03:56:52;9.02;;;7.00;;
40176;SDS011;31511;46.176;9.874;2023-08-20T03:59:36;14.07;;;8.25;;
40176;SDS011;31511;46.176;9.874;2023-08-20T04:02:23;13.13;;;8.07;;
40176;SDS011;31511;46.176;9.874;2023-08-20T04:05:09;8.77;;;7.05;;
40176;SDS011;31511;46.176;9.874;2023-08-20T04:07:54;10.95;;;7.00;;
40176;SDS011;31511;46.176;9.874;2023-08-20T04:10:43;10.25;;;7.80;;
40176;SDS011;31511;46.176;9.874;2023-08-20T04:13:31;10.60;;;7.70;;
40176;SDS011;31511;46.176;9.874;2023-08-20T04:16:15;10.43;;;8.32;;
40176;SDS011;31511;46.176;9.874;2023-08-20T04:19:01;11.35;;;7.35;;
40176;SDS011;31511;46.176;9.874;2023-08-20T04:21:46;10.40;;;7.57;;
40176;SDS011;31511;46.176;9.874;2023-08-20T04:24:31;7.65;;;6.85;;
40176;SDS011;31511;46.176;9.874;2023-08-20T04:27:15;13.25;;;7.80;;
40176;SDS011;31511;46.176;9.874;2023-08-20T04:30:00;12.63;;;7.65;;
40176;SDS011;31511;46.176;9.874;2023-08-20T04:32:45;11.27;;;7.90;;
40176;SDS011;31511;46.176;9.874;2023-08-20T04:35:30;13.18;;;7.70;;
40176;SDS011;31511;46.176;9.874;2023-08-20T04:38:15;10.88;;;7.47;;
40176;SDS011;31511;46.176;9.874;2023-08-20T04:41:00;10.27;;;6.90;;
40176;SDS011;31511;46.176;9.874;2023-08-20T04:43:45;9.55;;;7.57;;
40176;SDS011;31511;46.176;9.874;2023-08-20T04:46:29;11.10;;;7.10;;
40176;SDS011;31511;46.176;9.874;2023-08-20T04:49:14;9.95;;;7.47;;
40176;SDS011;31511;46.176;9.874;2023-08-20T04:52:00;9.65;;;6.95;;
40176;SDS011;31511;46.176;9.874;2023-08-20T04:54:44;8.88;;;7.45;;
40176;SDS011;31511;46.176;9.874;2023-08-20T04:57:29;14.40;;;8.90;;
40176;SDS011;31511;46.176;9.874;2023-08-20T05:00:15;9.68;;;7.63;;
40176;SDS011;31511;46.176;9.874;2023-08-20T05:02:59;13.13;;;6.75;;
40176;SDS011;31511;46.176;9.874;2023-08-20T05:05:48;11.75;;;7.93;;
40176;SDS011;31511;46.176;9.874;2023-08-20T05:08:32;12.40;;;7.78;;
40176;SDS011;31511;46.176;9.874;2023-08-20T05:11:17;15.80;;;6.97;;
40176;SDS011;31511;46.176;9.874;2023-08-20T05:14:02;9.73;;;6.70;;
40176;SDS011;31511;46.176;9.874;2023-08-20T05:16:46;9.70;;;7.10;;
40176;SDS011;31511;46.176;9.874;2023-08-20T05:19:31;9.70;;;6.65;;
40176;SDS011;31511;46.176;9.874;2023-08-20T05:22:16;11.45;;;6.95;;
40176;SDS011;31511;46.176;9.874;2023-08-20T05:25:00;10.27;;;6.82;;
40176;SDS011;31511;46.176;9.874;2023-08-20T05:27:45;16.13;;;7.45;;
40176;SDS011;31511;46.176;9.874;2023-08-20T05:30:29;9.98;;;7.32;;
40176;SDS011;31511;46.176;9.874;2023-08-20T05:33:14;13.38;;;8.00;;
40176;SDS011;31511;46.176;9.874;2023-08-20T05:35:59;9.48;;;7.22;;
40176;SDS011;31511;46.176;9.874;2023-08-20T05:38:44;13.32;;;7.57;;
40176;SDS011;31511;46.176;9.874;2023-08-20T05:41:29;9.60;;;8.05;;
40176;SDS011;31511;46.176;9.874;2023-08-20T05:44:14;10.13;;;6.97;;
40176;SDS011;31511;46.176;9.874;2023-08-20T05:46:59;9.70;;;7.25;;
40176;SDS011;31511;46.176;9.874;2023-08-20T05:49:44;14.68;;;7.00;;
40176;SDS011;31511;46.176;9.874;2023-08-20T05:52:30;12.82;;;8.15;;
40176;SDS011;31511;46.176;9.874;2023-08-20T05:55:16;8.68;;;6.32;;
40176;SDS011;31511;46.176;9.874;2023-08-20T05:58:01;11.10;;;8.02;;
40176;SDS011;31511;46.176;9.874;2023-08-20T06:00:45;11.73;;;7.80;;
40176;SDS011;31511;46.176;9.874;2023-08-20T06:03:30;14.65;;;7.47;;
40176;SDS011;31511;46.176;9.874;2023-08-20T06:06:15;10.80;;;6.97;;
40176;SDS011;31511;46.176;9.874;2023-08-20T06:08:59;9.98;;;7.22;;
40176;SDS011;31511;46.176;9.874;2023-08-20T06:11:44;12.93;;;7.10;;
40176;SDS011;31511;46.176;9.874;2023-08-20T06:14:30;10.70;;;7.60;;
40176;SDS011;31511;46.176;9.874;2023-08-20T06:17:15;10.88;;;7.13;;
40176;SDS011;31511;46.176;9.874;2023-08-20T06:19:59;9.23;;;6.93;;
40176;SDS011;31511;46.176;9.874;2023-08-20T06:22:44;7.65;;;6.85;;
40176;SDS011;31511;46.176;9.874;2023-08-20T06:25:29;12.60;;;6.93;;
40176;SDS011;31511;46.176;9.874;2023-08-20T06:28:14;9.32;;;6.30;;
40176;SDS011;31511;46.176;9.874;2023-08-20T06:30:58;10.10;;;7.05;;
40176;SDS011;31511;46.176;9.874;2023-08-20T06:33:43;9.48;;;6.72;;
40176;SDS011;31511;46.176;9.874;2023-08-20T06:36:29;8.85;;;5.72;;
40176;SDS011;31511;46.176;9.874;2023-08-20T06:39:14;8.38;;;5.47;;
40176;SDS011;31511;46.176;9.874;2023-08-20T06:41:59;7.30;;;5.90;;
40176;SDS011;31511;46.176;9.874;2023-08-20T06:44:44;9.50;;;6.75;;
40176;SDS011;31511;46.176;9.874;2023-08-20T06:47:30;9.07;;;6.80;;
40176;SDS011;31511;46.176;9.874;2023-08-20T06:50:15;10.52;;;6.65;;
40176;SDS011;31511;46.176;9.874;2023-08-20T06:53:00;13.35;;;7.15;;
40176;SDS011;31511;46.176;9.874;2023-08-20T06:55:45;12.73;;;6.13;;
40176;SDS011;31511;46.176;9.874;2023-08-20T06:58:30;12.50;;;6.47;;
40176;SDS011;31511;46.176;9.874;2023-08-20T07:01:15;7.20;;;6.43;;
40176;SDS011;31511;46.176;9.874;2023-08-20T07:03:59;9.63;;;6.95;;
40176;SDS011;31511;46.176;9.874;2023-08-20T07:06:44;7.28;;;6.18;;
40176;SDS011;31511;46.176;9.874;2023-08-20T07:09:30;12.88;;;6.68;;
40176;SDS011;31511;46.176;9.874;2023-08-20T07:12:15;12.82;;;6.88;;
40176;SDS011;31511;46.176;9.874;2023-08-20T07:15:00;9.77;;;6.75;;
40176;SDS011;31511;46.176;9.874;2023-08-20T07:17:45;8.20;;;6.65;;
40176;SDS011;31511;46.176;9.874;2023-08-20T07:20:31;10.25;;;6.68;;
40176;SDS011;31511;46.176;9.874;2023-08-20T07:23:16;9.15;;;5.68;;
40176;SDS011;31511;46.176;9.874;2023-08-20T07:26:05;9.88;;;5.85;;
40176;SDS011;31511;46.176;9.874;2023-08-20T07:28:50;8.43;;;6.32;;
40176;SDS011;31511;46.176;9.874;2023-08-20T07:31:41;8.25;;;5.38;;
40176;SDS011;31511;46.176;9.874;2023-08-20T07:34:27;9.15;;;5.72;;
40176;SDS011;31511;46.176;9.874;2023-08-20T07:37:14;7.60;;;5.18;;
40176;SDS011;31511;46.176;9.874;2023-08-20T07:40:00;7.55;;;5.00;;
40176;SDS011;31511;46.176;9.874;2023-08-20T07:42:44;9.23;;;4.28;;
40176;SDS011;31511;46.176;9.874;2023-08-20T07:45:30;5.20;;;4.68;;
40176;SDS011;31511;46.176;9.874;2023-08-20T07:48:15;6.93;;;5.28;;
40176;SDS011;31511;46.176;9.874;2023-08-20T07:51:00;5.25;;;4.57;;
40176;SDS011;31511;46.176;9.874;2023-08-20T07:53:45;8.98;;;5.03;;
40176;SDS011;31511;46.176;9.874;2023-08-20T07:56:31;9.05;;;5.10;;
40176;SDS011;31511;46.176;9.874;2023-08-20T07:59:16;8.30;;;5.00;;
40176;SDS011;31511;46.176;9.874;2023-08-20T08:02:01;9.20;;;5.10;;
40176;SDS011;31511;46.176;9.874;2023-08-20T08:04:45;6.53;;;5.22;;
40176;SDS011;31511;46.176;9.874;2023-08-20T08:07:30;15.75;;;4.60;;
40176;SDS011;31511;46.176;9.874;2023-08-20T08:10:15;10.25;;;5.28;;
40176;SDS011;31511;46.176;9.874;2023-08-20T08:12:59;7.95;;;5.40;;
40176;SDS011;31511;46.176;9.874;2023-08-20T08:15:44;14.18;;;5.85;;
40176;SDS011;31511;46.176;9.874;2023-08-20T08:18:30;5.93;;;4.65;;
40176;SDS011;31511;46.176;9.874;2023-08-20T08:21:14;6.97;;;5.10;;
40176;SDS011;31511;46.176;9.874;2023-08-20T08:24:00;8.18;;;5.00;;
40176;SDS011;31511;46.176;9.874;2023-08-20T08:26:44;7.40;;;5.07;;
40176;SDS011;31511;46.176;9.874;2023-08-20T08:29:30;7.15;;;5.25;;
40176;SDS011;31511;46.176;9.874;2023-08-20T08:32:14;7.35;;;5.10;;
40176;SDS011;31511;46.176;9.874;2023-08-20T08:35:01;9.80;;;5.68;;
40176;SDS011;31511;46.176;9.874;2023-08-20T08:37:46;9.25;;;5.45;;
40176;SDS011;31511;46.176;9.874;2023-08-20T08:40:30;6.13;;;5.00;;
40176;SDS011;31511;46.176;9.874;2023-08-20T08:43:15;6.43;;;5.13;;
40176;SDS011;31511;46.176;9.874;2023-08-20T08:46:02;8.05;;;5.22;;
40176;SDS011;31511;46.176;9.874;2023-08-20T08:48:49;8.95;;;5.18;;
40176;SDS011;31511;46.176;9.874;2023-08-20T08:51:34;10.25;;;5.30;;
40176;SDS011;31511;46.176;9.874;2023-08-20T08:54:19;7.85;;;4.70;;
40176;SDS011;31511;46.176;9.874;2023-08-20T08:57:05;8.25;;;5.57;;
40176;SDS011;31511;46.176;9.874;2023-08-20T08:59:50;11.27;;;4.68;;
40176;SDS011;31511;46.176;9.874;2023-08-20T09:02:35;7.05;;;4.28;;
40176;SDS011;31511;46.176;9.874;2023-08-20T09:05:20;7.97;;;4.72;;
40176;SDS011;31511;46.176;9.874;2023-08-20T09:08:06;8.00;;;5.05;;
40176;SDS011;31511;46.176;9.874;2023-08-20T09:10:57;7.32;;;5.28;;
40176;SDS011;31511;46.176;9.874;2023-08-20T09:13:43;9.43;;;5.47;;
40176;SDS011;31511;46.176;9.874;2023-08-20T09:16:30;8.30;;;4.88;;
40176;SDS011;31511;46.176;9.874;2023-08-20T09:19:16;9.18;;;5.13;;
40176;SDS011;31511;46.176;9.874;2023-08-20T09:22:01;6.75;;;4.57;;
40176;SDS011;31511;46.176;9.874;2023-08-20T09:24:46;6.45;;;5.10;;
40176;SDS011;31511;46.176;9.874;2023-08-20T09:27:32;8.18;;;5.05;;
40176;SDS011;31511;46.176;9.874;2023-08-20T09:30:23;9.07;;;5.65;;
40176;SDS011;31511;46.176;9.874;2023-08-20T09:33:11;9.85;;;5.20;;
40176;SDS011;31511;46.176;9.874;2023-08-20T09:35:58;6.80;;;5.88;;
40176;SDS011;31511;46.176;9.874;2023-08-20T09:38:42;8.30;;;5.53;;
40176;SDS011;31511;46.176;9.874;2023-08-20T09:41:29;10.80;;;5.70;;
40176;SDS011;31511;46.176;9.874;2023-08-20T09:44:15;9.85;;;5.65;;
40176;SDS011;31511;46.176;9.874;2023-08-20T09:47:01;6.78;;;5.13;;
40176;SDS011;31511;46.176;9.874;2023-08-20T09:49:47;8.52;;;4.97;;
40176;SDS011;31511;46.176;9.874;2023-08-20T09:52:35;6.43;;;4.93;;
40176;SDS011;31511;46.176;9.874;2023-08-20T09:55:22;6.65;;;4.75;;
40176;SDS011;31511;46.176;9.874;2023-08-20T09:58:12;8.25;;;5.00;;
40176;SDS011;31511;46.176;9.874;2023-08-20T10:01:00;6.05;;;4.25;;
40176;SDS011;31511;46.176;9.874;2023-08-20T10:03:45;7.15;;;4.63;;
40176;SDS011;31511;46.176;9.874;2023-08-20T10:06:30;6.00;;;4.38;;
40176;SDS011;31511;46.176;9.874;2023-08-20T10:09:17;5.97;;;4.22;;
40176;SDS011;31511;46.176;9.874;2023-08-20T10:12:02;6.45;;;4.97;;
40176;SDS011;31511;46.176;9.874;2023-08-20T10:14:47;8.60;;;4.47;;
40176;SDS011;31511;46.176;9.874;2023-08-20T10:17:34;10.10;;;4.72;;
40176;SDS011;31511;46.176;9.874;2023-08-20T10:20:20;7.43;;;5.22;;
40176;SDS011;31511;46.176;9.874;2023-08-20T10:23:07;7.75;;;5.47;;
40176;SDS011;31511;46.176;9.874;2023-08-20T10:25:52;9.77;;;4.60;;
40176;SDS011;31511;46.176;9.874;2023-08-20T10:28:37;9.95;;;6.07;;
40176;SDS011;31511;46.176;9.874;2023-08-20T10:31:25;16.52;;;5.72;;
40176;SDS011;31511;46.176;9.874;2023-08-20T10:34:11;6.60;;;4.57;;
40176;SDS011;31511;46.176;9.874;2023-08-20T10:36:57;9.10;;;6.00;;
40176;SDS011;31511;46.176;9.874;2023-08-20T10:39:42;9.95;;;5.63;;
40176;SDS011;31511;46.176;9.874;2023-08-20T10:42:28;7.32;;;5.57;;
40176;SDS011;31511;46.176;9.874;2023-08-20T10:45:13;9.48;;;5.22;;
40176;SDS011;31511;46.176;9.874;2023-08-20T10:47:59;6.40;;;5.35;;
40176;SDS011;31511;46.176;9.874;2023-08-20T10:50:43;10.35;;;5.38;;
40176;SDS011;31511;46.176;9.874;2023-08-20T10:53:29;6.57;;;4.72;;
40176;SDS011;31511;46.176;9.874;2023-08-20T10:56:15;6.93;;;5.28;;
40176;SDS011;31511;46.176;9.874;2023-08-20T10:59:00;11.90;;;5.30;;
40176;SDS011;31511;46.176;9.874;2023-08-20T11:01:50;9.50;;;5.60;;
40176;SDS011;31511;46.176;9.874;2023-08-20T11:04:35;10.63;;;5.07;;
40176;SDS011;31511;46.176;9.874;2023-08-20T11:07:21;11.57;;;4.85;;
40176;SDS011;31511;46.176;9.874;2023-08-20T11:10:08;12.15;;;5.40;;
40176;SDS011;31511;46.176;9.874;2023-08-20T11:12:53;13.10;;;5.32;;
40176;SDS011;31511;46.176;9.874;2023-08-20T11:15:38;8.82;;;5.68;;
40176;SDS011;31511;46.176;9.874;2023-08-20T11:18:24;6.60;;;5.38;;
40176;SDS011;31511;46.176;9.874;2023-08-20T11:21:11;8.45;;;6.22;;
40176;SDS011;31511;46.176;9.874;2023-08-20T11:23:57;7.63;;;6.10;;
40176;SDS011;31511;46.176;9.874;2023-08-20T11:26:41;8.38;;;5.95;;
40176;SDS011;31511;46.176;9.874;2023-08-20T11:29:27;9.75;;;5.68;;
40176;SDS011;31511;46.176;9.874;2023-08-20T11:32:15;12.43;;;6.05;;
40176;SDS011;31511;46.176;9.874;2023-08-20T11:35:01;10.63;;;6.65;;
40176;SDS011;31511;46.176;9.874;2023-08-20T11:37:46;10.80;;;6.40;;
40176;SDS011;31511;46.176;9.874;2023-08-20T11:40:31;7.07;;;5.70;;
40176;SDS011;31511;46.176;9.874;2023-08-20T11:43:15;9.25;;;6.53;;
40176;SDS011;31511;46.176;9.874;2023-08-20T11:46:00;11.23;;;6.28;;
40176;SDS011;31511;46.176;9.874;2023-08-20T11:51:48;7.63;;;6.32;;
40176;SDS011;31511;46.176;9.874;2023-08-20T11:54:35;7.57;;;5.68;;
40176;SDS011;31511;46.176;9.874;2023-08-20T11:57:21;6.88;;;5.35;;
40176;SDS011;31511;46.176;9.874;2023-08-20T12:00:07;9.73;;;6.13;;
40176;SDS011;31511;46.176;9.874;2023-08-20T12:02:57;7.90;;;5.28;;
40176;SDS011;31511;46.176;9.874;2023-08-20T12:05:42;7.63;;;5.18;;
40176;SDS011;31511;46.176;9.874;2023-08-20T12:08:28;8.95;;;6.35;;
40176;SDS011;31511;46.176;9.874;2023-08-20T12:11:13;9.32;;;5.63;;
40176;SDS011;31511;46.176;9.874;2023-08-20T12:13:58;8.80;;;6.53;;
40176;SDS011;31511;46.176;9.874;2023-08-20T12:16:43;14.48;;;5.90;;
40176;SDS011;31511;46.176;9.874;2023-08-20T12:19:29;8.80;;;5.72;;
40176;SDS011;31511;46.176;9.874;2023-08-20T12:22:14;11.30;;;5.32;;
40176;SDS011;31511;46.176;9.874;2023-08-20T12:24:59;5.38;;;4.82;;
40176;SDS011;31511;46.176;9.874;2023-08-20T12:27:44;10.90;;;5.88;;
40176;SDS011;31511;46.176;9.874;2023-08-20T12:30:29;6.95;;;6.05;;
40176;SDS011;31511;46.176;9.874;2023-08-20T12:33:14;10.52;;;5.90;;
40176;SDS011;31511;46.176;9.874;2023-08-20T12:35:59;9.77;;;6.68;;
40176;SDS011;31511;46.176;9.874;2023-08-20T12:38:44;8.85;;;5.60;;
40176;SDS011;31511;46.176;9.874;2023-08-20T12:41:29;10.05;;;6.10;;
40176;SDS011;31511;46.176;9.874;2023-08-20T12:44:14;9.02;;;6.10;;
40176;SDS011;31511;46.176;9.874;2023-08-20T12:46:59;8.93;;;6.45;;
40176;SDS011;31511;46.176;9.874;2023-08-20T12:49:43;8.63;;;7.07;;
40176;SDS011;31511;46.176;9.874;2023-08-20T12:52:29;9.38;;;7.28;;
40176;SDS011;31511;46.176;9.874;2023-08-20T12:55:14;8.80;;;7.50;;
40176;SDS011;31511;46.176;9.874;2023-08-20T12:57:59;10.88;;;6.95;;
40176;SDS011;31511;46.176;9.874;2023-08-20T13:00:44;10.10;;;6.35;;
40176;SDS011;31511;46.176;9.874;2023-08-20T13:03:29;9.75;;;6.47;;
40176;SDS011;31511;46.176;9.874;2023-08-20T13:06:14;8.18;;;6.65;;
40176;SDS011;31511;46.176;9.874;2023-08-20T13:09:02;9.35;;;6.50;;
40176;SDS011;31511;46.176;9.874;2023-08-20T13:11:47;11.60;;;6.00;;
40176;SDS011;31511;46.176;9.874;2023-08-20T13:14:32;9.10;;;6.53;;
40176;SDS011;31511;46.176;9.874;2023-08-20T13:17:18;11.90;;;5.95;;
40176;SDS011;31511;46.176;9.874;2023-08-20T13:20:04;12.07;;;8.57;;
40176;SDS011;31511;46.176;9.874;2023-08-20T13:22:49;10.57;;;6.35;;
40176;SDS011;31511;46.176;9.874;2023-08-20T13:25:34;8.32;;;5.97;;
40176;SDS011;31511;46.176;9.874;2023-08-20T13:28:20;7.15;;;6.38;;
40176;SDS011;31511;46.176;9.874;2023-08-20T13:31:05;9.95;;;8.43;;
40176;SDS011;31511;46.176;9.874;2023-08-20T13:33:50;8.93;;;7.47;;
40176;SDS011;31511;46.176;9.874;2023-08-20T13:36:35;12.77;;;6.30;;
40176;SDS011;31511;46.176;9.874;2023-08-20T13:39:21;15.25;;;5.95;;
40176;SDS011;31511;46.176;9.874;2023-08-20T13:42:07;8.93;;;6.57;;
40176;SDS011;31511;46.176;9.874;2023-08-20T13:44:52;9.45;;;8.48;;
40176;SDS011;31511;46.176;9.874;2023-08-20T13:47:36;14.82;;;8.93;;
40176;SDS011;31511;46.176;9.874;2023-08-20T13:50:22;12.98;;;7.68;;
40176;SDS011;31511;46.176;9.874;2023-08-20T13:53:08;11.02;;;7.30;;
40176;SDS011;31511;46.176;9.874;2023-08-20T13:55:53;13.90;;;7.10;;
40176;SDS011;31511;46.176;9.874;2023-08-20T13:58:38;9.98;;;7.20;;
40176;SDS011;31511;46.176;9.874;2023-08-20T14:01:24;12.73;;;10.00;;
40176;SDS011;31511;46.176;9.874;2023-08-20T14:04:11;12.60;;;6.93;;
40176;SDS011;31511;46.176;9.874;2023-08-20T14:06:56;8.13;;;7.32;;
40176;SDS011;31511;46.176;9.874;2023-08-20T14:09:40;9.30;;;7.32;;
40176;SDS011;31511;46.176;9.874;2023-08-20T14:12:27;8.35;;;7.18;;
40176;SDS011;31511;46.176;9.874;2023-08-20T14:15:13;7.70;;;6.90;;
40176;SDS011;31511;46.176;9.874;2023-08-20T14:17:59;13.50;;;6.88;;
40176;SDS011;31511;46.176;9.874;2023-08-20T14:20:43;12.02;;;6.80;;
40176;SDS011;31511;46.176;9.874;2023-08-20T14:23:28;11.27;;;7.30;;
40176;SDS011;31511;46.176;9.874;2023-08-20T14:26:13;11.07;;;6.60;;
40176;SDS011;31511;46.176;9.874;2023-08-20T14:28:59;12.68;;;7.25;;
40176;SDS011;31511;46.176;9.874;2023-08-20T14:31:44;9.63;;;7.65;;
40176;SDS011;31511;46.176;9.874;2023-08-20T14:34:29;8.68;;;6.80;;
40176;SDS011;31511;46.176;9.874;2023-08-20T14:37:15;9.55;;;7.72;;
40176;SDS011;31511;46.176;9.874;2023-08-20T14:40:00;11.02;;;7.38;;
40176;SDS011;31511;46.176;9.874;2023-08-20T14:42:44;8.80;;;7.20;;
40176;SDS011;31511;46.176;9.874;2023-08-20T14:45:29;10.52;;;7.05;;
40176;SDS011;31511;46.176;9.874;2023-08-20T14:48:14;9.60;;;7.13;;
40176;SDS011;31511;46.176;9.874;2023-08-20T14:51:00;8.32;;;6.57;;
40176;SDS011;31511;46.176;9.874;2023-08-20T14:53:44;14.13;;;7.25;;
40176;SDS011;31511;46.176;9.874;2023-08-20T14:56:30;9.13;;;7.20;;
40176;SDS011;31511;46.176;9.874;2023-08-20T14:59:15;11.00;;;7.53;;
40176;SDS011;31511;46.176;9.874;2023-08-20T15:02:01;10.52;;;7.63;;
40176;SDS011;31511;46.176;9.874;2023-08-20T15:04:46;11.95;;;7.88;;
40176;SDS011;31511;46.176;9.874;2023-08-20T15:07:31;9.55;;;7.72;;
40176;SDS011;31511;46.176;9.874;2023-08-20T15:10:15;17.65;;;8.77;;
40176;SDS011;31511;46.176;9.874;2023-08-20T15:13:01;11.35;;;8.35;;
40176;SDS011;31511;46.176;9.874;2023-08-20T15:15:50;17.00;;;8.77;;
40176;SDS011;31511;46.176;9.874;2023-08-20T15:18:35;11.20;;;7.50;;
40176;SDS011;31511;46.176;9.874;2023-08-20T15:21:20;12.27;;;9.57;;
40176;SDS011;31511;46.176;9.874;2023-08-20T15:24:06;9.18;;;8.27;;
40176;SDS011;31511;46.176;9.874;2023-08-20T15:26:50;10.38;;;8.23;;
40176;SDS011;31511;46.176;9.874;2023-08-20T15:29:35;10.00;;;8.10;;
40176;SDS011;31511;46.176;9.874;2023-08-20T15:32:20;12.43;;;8.82;;
40176;SDS011;31511;46.176;9.874;2023-08-20T15:35:09;10.07;;;8.13;;
40176;SDS011;31511;46.176;9.874;2023-08-20T15:37:54;10.40;;;7.75;;
40176;SDS011;31511;46.176;9.874;2023-08-20T15:40:38;16.05;;;8.13;;
40176;SDS011;31511;46.176;9.874;2023-08-20T15:43:24;12.65;;;7.80;;
40176;SDS011;31511;46.176;9.874;2023-08-20T15:46:11;13.77;;;8.57;;
40176;SDS011;31511;46.176;9.874;2023-08-20T15:48:56;13.32;;;8.57;;
40176;SDS011;31511;46.176;9.874;2023-08-20T15:51:40;9.90;;;7.75;;
40176;SDS011;31511;46.176;9.874;2023-08-20T15:54:27;16.77;;;9.45;;
40176;SDS011;31511;46.176;9.874;2023-08-20T15:57:14;14.48;;;8.52;;
40176;SDS011;31511;46.176;9.874;2023-08-20T15:59:59;14.88;;;9.02;;
40176;SDS011;31511;46.176;9.874;2023-08-20T16:02:44;12.68;;;7.65;;
40176;SDS011;31511;46.176;9.874;2023-08-20T16:05:30;11.32;;;8.38;;
40176;SDS011;31511;46.176;9.874;2023-08-20T16:08:15;12.10;;;8.43;;
40176;SDS011;31511;46.176;9.874;2023-08-20T16:11:01;10.82;;;9.27;;
40176;SDS011;31511;46.176;9.874;2023-08-20T16:13:47;13.30;;;8.55;;
40176;SDS011;31511;46.176;9.874;2023-08-20T16:16:31;11.90;;;8.65;;
40176;SDS011;31511;46.176;9.874;2023-08-20T16:19:17;9.43;;;8.52;;
40176;SDS011;31511;46.176;9.874;2023-08-20T16:22:01;10.52;;;9.07;;
40176;SDS011;31511;46.176;9.874;2023-08-20T16:24:50;10.20;;;8.70;;
40176;SDS011;31511;46.176;9.874;2023-08-20T16:27:35;9.50;;;8.43;;
40176;SDS011;31511;46.176;9.874;2023-08-20T16:30:19;11.25;;;9.07;;
40176;SDS011;31511;46.176;9.874;2023-08-20T16:33:07;11.35;;;9.63;;
40176;SDS011;31511;46.176;9.874;2023-08-20T16:35:54;16.98;;;8.50;;
40176;SDS011;31511;46.176;9.874;2023-08-20T16:38:38;13.25;;;8.43;;
40176;SDS011;31511;46.176;9.874;2023-08-20T16:41:24;13.23;;;8.15;;